sensor_id;sensor_type;location;lat;lon;timestamp;P1;durP1;ratioP1;P2;durP2;ratioP2
66856;SDS011;53766;50.280;19.160;2023-06-14T00:01:59;4.85;;;3.42;;
66856;SDS011;53766;50.280;19.160;2023-06-14T00:04:27;5.55;;;3.28;;
66856;SDS011;53766;50.280;19.160;2023-06-14T00:06:55;4.40;;;3.20;;
66856;SDS011;53766;50.280;19.160;2023-06-14T00:09:24;6.35;;;3.47;;
66856;SDS011;53766;50.280;19.160;2023-06-14T00:11:51;4.95;;;3.15;;
66856;SDS011;53766;50.280;19.160;2023-06-14T00:14:19;7.00;;;3.45;;
66856;SDS011;53766;50.280;19.160;2023-06-14T00:16:46;7.18;;;3.75;;
66856;SDS011;53766;50.280;19.160;2023-06-14T00:19:15;5.65;;;3.17;;
66856;SDS011;53766;50.280;19.160;2023-06-14T00:21:43;5.10;;;3.28;;
66856;SDS011;53766;50.280;19.160;2023-06-14T00:24:11;5.65;;;3.17;;
66856;SDS011;53766;50.280;19.160;2023-06-14T00:26:38;7.25;;;3.40;;
66856;SDS011;53766;50.280;19.160;2023-06-14T00:29:06;5.03;;;2.83;;
66856;SDS011;53766;50.280;19.160;2023-06-14T00:31:33;4.88;;;3.28;;
66856;SDS011;53766;50.280;19.160;2023-06-14T00:34:01;6.65;;;3.35;;
66856;SDS011;53766;50.280;19.160;2023-06-14T00:36:29;7.10;;;3.60;;
66856;SDS011;53766;50.280;19.160;2023-06-14T00:38:56;4.53;;;3.35;;
66856;SDS011;53766;50.280;19.160;2023-06-14T00:41:24;4.80;;;3.25;;
66856;SDS011;53766;50.280;19.160;2023-06-14T00:43:51;4.93;;;3.15;;
66856;SDS011;53766;50.280;19.160;2023-06-14T00:46:19;5.65;;;3.30;;
66856;SDS011;53766;50.280;19.160;2023-06-14T00:48:47;4.68;;;3.28;;
66856;SDS011;53766;50.280;19.160;2023-06-14T00:51:15;3.97;;;3.05;;
66856;SDS011;53766;50.280;19.160;2023-06-14T00:53:42;4.55;;;3.08;;
66856;SDS011;53766;50.280;19.160;2023-06-14T00:56:14;3.95;;;2.95;;
66856;SDS011;53766;50.280;19.160;2023-06-14T00:58:42;4.97;;;3.30;;
66856;SDS011;53766;50.280;19.160;2023-06-14T01:01:10;5.10;;;3.00;;
66856;SDS011;53766;50.280;19.160;2023-06-14T01:03:38;5.43;;;3.03;;
66856;SDS011;53766;50.280;19.160;2023-06-14T01:08:57;4.53;;;3.17;;
66856;SDS011;53766;50.280;19.160;2023-06-14T01:11:37;5.10;;;2.95;;
66856;SDS011;53766;50.280;19.160;2023-06-14T01:14:13;4.25;;;3.17;;
66856;SDS011;53766;50.280;19.160;2023-06-14T01:16:43;5.07;;;3.58;;
66856;SDS011;53766;50.280;19.160;2023-06-14T01:19:12;6.55;;;3.13;;
66856;SDS011;53766;50.280;19.160;2023-06-14T01:21:42;4.10;;;2.70;;
66856;SDS011;53766;50.280;19.160;2023-06-14T01:24:10;4.78;;;3.08;;
66856;SDS011;53766;50.280;19.160;2023-06-14T01:26:38;4.85;;;3.22;;
66856;SDS011;53766;50.280;19.160;2023-06-14T01:29:13;5.18;;;3.08;;
66856;SDS011;53766;50.280;19.160;2023-06-14T01:31:44;5.53;;;3.40;;
66856;SDS011;53766;50.280;19.160;2023-06-14T01:34:12;6.30;;;3.42;;
66856;SDS011;53766;50.280;19.160;2023-06-14T01:36:40;4.18;;;3.40;;
66856;SDS011;53766;50.280;19.160;2023-06-14T01:39:11;5.72;;;3.25;;
66856;SDS011;53766;50.280;19.160;2023-06-14T01:41:42;4.38;;;3.17;;
66856;SDS011;53766;50.280;19.160;2023-06-14T01:44:12;5.05;;;3.08;;
66856;SDS011;53766;50.280;19.160;2023-06-14T01:46:42;4.20;;;3.10;;
66856;SDS011;53766;50.280;19.160;2023-06-14T01:49:11;6.05;;;3.08;;
66856;SDS011;53766;50.280;19.160;2023-06-14T01:51:38;3.92;;;3.13;;
66856;SDS011;53766;50.280;19.160;2023-06-14T01:54:06;4.13;;;2.88;;
66856;SDS011;53766;50.280;19.160;2023-06-14T01:56:33;4.70;;;3.30;;
66856;SDS011;53766;50.280;19.160;2023-06-14T01:59:01;4.68;;;3.08;;
66856;SDS011;53766;50.280;19.160;2023-06-14T02:01:29;5.32;;;3.20;;
66856;SDS011;53766;50.280;19.160;2023-06-14T02:03:58;5.38;;;3.33;;
66856;SDS011;53766;50.280;19.160;2023-06-14T02:06:26;5.95;;;3.00;;
66856;SDS011;53766;50.280;19.160;2023-06-14T02:08:55;5.28;;;3.08;;
66856;SDS011;53766;50.280;19.160;2023-06-14T02:11:22;4.43;;;2.80;;
66856;SDS011;53766;50.280;19.160;2023-06-14T02:13:50;4.88;;;3.17;;
66856;SDS011;53766;50.280;19.160;2023-06-14T02:16:18;4.50;;;3.38;;
66856;SDS011;53766;50.280;19.160;2023-06-14T02:18:45;5.57;;;3.30;;
66856;SDS011;53766;50.280;19.160;2023-06-14T02:21:13;5.72;;;3.28;;
66856;SDS011;53766;50.280;19.160;2023-06-14T02:23:41;8.05;;;3.00;;
66856;SDS011;53766;50.280;19.160;2023-06-14T02:26:09;4.90;;;3.38;;
66856;SDS011;53766;50.280;19.160;2023-06-14T02:28:36;4.30;;;3.13;;
66856;SDS011;53766;50.280;19.160;2023-06-14T02:31:04;4.93;;;2.92;;
66856;SDS011;53766;50.280;19.160;2023-06-14T02:33:31;7.35;;;3.40;;
66856;SDS011;53766;50.280;19.160;2023-06-14T02:35:59;5.85;;;3.05;;
66856;SDS011;53766;50.280;19.160;2023-06-14T02:38:29;5.60;;;3.13;;
66856;SDS011;53766;50.280;19.160;2023-06-14T02:40:57;5.43;;;3.22;;
66856;SDS011;53766;50.280;19.160;2023-06-14T02:43:26;6.80;;;3.10;;
66856;SDS011;53766;50.280;19.160;2023-06-14T02:45:54;5.40;;;3.15;;
66856;SDS011;53766;50.280;19.160;2023-06-14T02:48:21;4.32;;;3.28;;
66856;SDS011;53766;50.280;19.160;2023-06-14T02:50:49;7.18;;;3.53;;
66856;SDS011;53766;50.280;19.160;2023-06-14T02:53:17;6.22;;;3.35;;
66856;SDS011;53766;50.280;19.160;2023-06-14T02:55:44;6.75;;;3.30;;
66856;SDS011;53766;50.280;19.160;2023-06-14T02:58:14;4.65;;;3.10;;
66856;SDS011;53766;50.280;19.160;2023-06-14T03:00:41;4.93;;;3.25;;
66856;SDS011;53766;50.280;19.160;2023-06-14T03:03:09;5.40;;;3.20;;
66856;SDS011;53766;50.280;19.160;2023-06-14T03:05:44;4.85;;;3.30;;
66856;SDS011;53766;50.280;19.160;2023-06-14T03:08:17;5.63;;;3.17;;
66856;SDS011;53766;50.280;19.160;2023-06-14T03:10:47;4.40;;;3.28;;
66856;SDS011;53766;50.280;19.160;2023-06-14T03:13:16;5.90;;;3.40;;
66856;SDS011;53766;50.280;19.160;2023-06-14T03:15:43;5.05;;;3.25;;
66856;SDS011;53766;50.280;19.160;2023-06-14T03:18:12;5.10;;;3.47;;
66856;SDS011;53766;50.280;19.160;2023-06-14T03:20:41;5.15;;;3.40;;
66856;SDS011;53766;50.280;19.160;2023-06-14T03:23:10;6.45;;;3.15;;
66856;SDS011;53766;50.280;19.160;2023-06-14T03:25:37;7.88;;;3.72;;
66856;SDS011;53766;50.280;19.160;2023-06-14T03:28:05;5.63;;;3.38;;
66856;SDS011;53766;50.280;19.160;2023-06-14T03:30:33;5.45;;;3.25;;
66856;SDS011;53766;50.280;19.160;2023-06-14T03:33:02;5.20;;;3.28;;
66856;SDS011;53766;50.280;19.160;2023-06-14T03:35:29;7.50;;;3.58;;
66856;SDS011;53766;50.280;19.160;2023-06-14T03:37:57;6.75;;;3.65;;
66856;SDS011;53766;50.280;19.160;2023-06-14T03:40:24;5.70;;;3.60;;
66856;SDS011;53766;50.280;19.160;2023-06-14T03:42:54;4.60;;;3.20;;
66856;SDS011;53766;50.280;19.160;2023-06-14T03:45:22;6.68;;;3.40;;
66856;SDS011;53766;50.280;19.160;2023-06-14T03:47:50;4.97;;;3.47;;
66856;SDS011;53766;50.280;19.160;2023-06-14T03:50:18;6.25;;;3.33;;
66856;SDS011;53766;50.280;19.160;2023-06-14T03:52:47;6.45;;;3.58;;
66856;SDS011;53766;50.280;19.160;2023-06-14T03:55:15;5.05;;;3.50;;
66856;SDS011;53766;50.280;19.160;2023-06-14T03:57:46;5.35;;;3.20;;
66856;SDS011;53766;50.280;19.160;2023-06-14T04:00:14;5.97;;;3.22;;
66856;SDS011;53766;50.280;19.160;2023-06-14T04:02:42;7.60;;;3.80;;
66856;SDS011;53766;50.280;19.160;2023-06-14T04:05:11;6.68;;;3.45;;
66856;SDS011;53766;50.280;19.160;2023-06-14T04:07:39;5.78;;;3.50;;
66856;SDS011;53766;50.280;19.160;2023-06-14T04:10:12;6.43;;;3.92;;
66856;SDS011;53766;50.280;19.160;2023-06-14T04:12:57;6.70;;;3.58;;
66856;SDS011;53766;50.280;19.160;2023-06-14T04:15:24;6.82;;;3.75;;
66856;SDS011;53766;50.280;19.160;2023-06-14T04:17:53;5.47;;;3.70;;
66856;SDS011;53766;50.280;19.160;2023-06-14T04:20:24;8.65;;;3.92;;
66856;SDS011;53766;50.280;19.160;2023-06-14T04:22:56;6.57;;;3.90;;
66856;SDS011;53766;50.280;19.160;2023-06-14T04:25:24;6.22;;;3.97;;
66856;SDS011;53766;50.280;19.160;2023-06-14T04:27:54;6.47;;;3.88;;
66856;SDS011;53766;50.280;19.160;2023-06-14T04:30:22;6.57;;;3.80;;
66856;SDS011;53766;50.280;19.160;2023-06-14T04:32:54;7.15;;;3.80;;
66856;SDS011;53766;50.280;19.160;2023-06-14T04:35:23;6.03;;;4.03;;
66856;SDS011;53766;50.280;19.160;2023-06-14T04:37:51;5.85;;;3.60;;
66856;SDS011;53766;50.280;19.160;2023-06-14T04:40:20;7.75;;;3.67;;
66856;SDS011;53766;50.280;19.160;2023-06-14T04:42:48;6.00;;;3.95;;
66856;SDS011;53766;50.280;19.160;2023-06-14T04:45:15;6.72;;;3.65;;
66856;SDS011;53766;50.280;19.160;2023-06-14T04:47:44;6.53;;;3.75;;
66856;SDS011;53766;50.280;19.160;2023-06-14T04:50:13;7.28;;;3.78;;
66856;SDS011;53766;50.280;19.160;2023-06-14T04:52:41;7.50;;;4.22;;
66856;SDS011;53766;50.280;19.160;2023-06-14T04:55:08;5.47;;;3.72;;
66856;SDS011;53766;50.280;19.160;2023-06-14T04:57:37;6.22;;;4.10;;
66856;SDS011;53766;50.280;19.160;2023-06-14T05:00:05;8.18;;;4.45;;
66856;SDS011;53766;50.280;19.160;2023-06-14T05:02:33;8.10;;;3.97;;
66856;SDS011;53766;50.280;19.160;2023-06-14T05:05:02;7.78;;;4.13;;
66856;SDS011;53766;50.280;19.160;2023-06-14T05:07:31;8.30;;;4.07;;
66856;SDS011;53766;50.280;19.160;2023-06-14T05:10:00;6.97;;;4.50;;
66856;SDS011;53766;50.280;19.160;2023-06-14T05:12:28;8.05;;;4.63;;
66856;SDS011;53766;50.280;19.160;2023-06-14T05:14:56;6.50;;;4.38;;
66856;SDS011;53766;50.280;19.160;2023-06-14T05:17:25;7.82;;;4.25;;
66856;SDS011;53766;50.280;19.160;2023-06-14T05:19:55;8.32;;;4.85;;
66856;SDS011;53766;50.280;19.160;2023-06-14T05:22:23;7.22;;;4.15;;
66856;SDS011;53766;50.280;19.160;2023-06-14T05:24:50;7.25;;;4.60;;
66856;SDS011;53766;50.280;19.160;2023-06-14T05:27:18;6.28;;;4.07;;
66856;SDS011;53766;50.280;19.160;2023-06-14T05:29:45;6.93;;;4.63;;
66856;SDS011;53766;50.280;19.160;2023-06-14T05:32:13;9.18;;;4.78;;
66856;SDS011;53766;50.280;19.160;2023-06-14T05:34:40;8.80;;;4.57;;
66856;SDS011;53766;50.280;19.160;2023-06-14T05:37:09;11.68;;;4.72;;
66856;SDS011;53766;50.280;19.160;2023-06-14T05:39:36;7.20;;;4.50;;
66856;SDS011;53766;50.280;19.160;2023-06-14T05:42:04;8.20;;;5.07;;
66856;SDS011;53766;50.280;19.160;2023-06-14T05:44:33;7.40;;;4.57;;
66856;SDS011;53766;50.280;19.160;2023-06-14T05:47:01;8.48;;;5.28;;
66856;SDS011;53766;50.280;19.160;2023-06-14T05:49:28;8.43;;;4.78;;
66856;SDS011;53766;50.280;19.160;2023-06-14T05:51:56;6.28;;;4.38;;
66856;SDS011;53766;50.280;19.160;2023-06-14T05:54:23;6.50;;;4.43;;
66856;SDS011;53766;50.280;19.160;2023-06-14T05:56:51;12.13;;;5.03;;
66856;SDS011;53766;50.280;19.160;2023-06-14T05:59:18;7.68;;;4.72;;
66856;SDS011;53766;50.280;19.160;2023-06-14T06:01:46;9.20;;;4.90;;
66856;SDS011;53766;50.280;19.160;2023-06-14T06:04:13;8.95;;;4.95;;
66856;SDS011;53766;50.280;19.160;2023-06-14T06:06:41;9.73;;;4.82;;
66856;SDS011;53766;50.280;19.160;2023-06-14T06:09:09;7.28;;;4.75;;
66856;SDS011;53766;50.280;19.160;2023-06-14T06:11:36;8.25;;;5.68;;
66856;SDS011;53766;50.280;19.160;2023-06-14T06:14:19;7.55;;;4.90;;
66856;SDS011;53766;50.280;19.160;2023-06-14T06:16:49;9.25;;;5.40;;
66856;SDS011;53766;50.280;19.160;2023-06-14T06:19:16;7.63;;;5.18;;
66856;SDS011;53766;50.280;19.160;2023-06-14T06:21:44;7.43;;;4.75;;
66856;SDS011;53766;50.280;19.160;2023-06-14T06:24:11;7.72;;;5.15;;
66856;SDS011;53766;50.280;19.160;2023-06-14T06:26:39;7.57;;;4.93;;
66856;SDS011;53766;50.280;19.160;2023-06-14T06:29:07;9.20;;;4.68;;
66856;SDS011;53766;50.280;19.160;2023-06-14T06:31:35;8.02;;;4.75;;
66856;SDS011;53766;50.280;19.160;2023-06-14T06:34:02;8.68;;;4.85;;
66856;SDS011;53766;50.280;19.160;2023-06-14T06:36:30;9.48;;;5.03;;
66856;SDS011;53766;50.280;19.160;2023-06-14T06:38:57;8.20;;;4.50;;
66856;SDS011;53766;50.280;19.160;2023-06-14T06:41:25;7.60;;;4.57;;
66856;SDS011;53766;50.280;19.160;2023-06-14T06:43:53;8.48;;;4.40;;
66856;SDS011;53766;50.280;19.160;2023-06-14T06:46:21;7.20;;;4.40;;
66856;SDS011;53766;50.280;19.160;2023-06-14T06:48:48;7.72;;;4.60;;
66856;SDS011;53766;50.280;19.160;2023-06-14T06:51:16;7.82;;;4.55;;
66856;SDS011;53766;50.280;19.160;2023-06-14T06:53:45;6.45;;;4.45;;
66856;SDS011;53766;50.280;19.160;2023-06-14T06:56:20;5.15;;;3.78;;
66856;SDS011;53766;50.280;19.160;2023-06-14T06:58:50;5.53;;;3.75;;
66856;SDS011;53766;50.280;19.160;2023-06-14T07:01:18;6.32;;;3.65;;
66856;SDS011;53766;50.280;19.160;2023-06-14T07:03:46;8.68;;;3.70;;
66856;SDS011;53766;50.280;19.160;2023-06-14T07:06:15;5.95;;;3.63;;
66856;SDS011;53766;50.280;19.160;2023-06-14T07:08:45;4.75;;;3.42;;
66856;SDS011;53766;50.280;19.160;2023-06-14T07:11:15;5.35;;;3.50;;
66856;SDS011;53766;50.280;19.160;2023-06-14T07:13:42;6.43;;;3.70;;
66856;SDS011;53766;50.280;19.160;2023-06-14T07:16:10;4.28;;;3.33;;
66856;SDS011;53766;50.280;19.160;2023-06-14T07:18:37;6.68;;;3.60;;
66856;SDS011;53766;50.280;19.160;2023-06-14T07:21:05;5.10;;;2.95;;
66856;SDS011;53766;50.280;19.160;2023-06-14T07:23:32;5.28;;;3.20;;
66856;SDS011;53766;50.280;19.160;2023-06-14T07:26:00;4.70;;;2.90;;
66856;SDS011;53766;50.280;19.160;2023-06-14T07:28:27;5.43;;;3.35;;
66856;SDS011;53766;50.280;19.160;2023-06-14T07:30:55;5.65;;;3.30;;
66856;SDS011;53766;50.280;19.160;2023-06-14T07:33:23;4.15;;;3.20;;
66856;SDS011;53766;50.280;19.160;2023-06-14T07:35:51;4.30;;;2.88;;
66856;SDS011;53766;50.280;19.160;2023-06-14T07:38:19;4.53;;;3.03;;
66856;SDS011;53766;50.280;19.160;2023-06-14T07:40:47;4.07;;;2.83;;
66856;SDS011;53766;50.280;19.160;2023-06-14T07:43:15;6.50;;;3.17;;
66856;SDS011;53766;50.280;19.160;2023-06-14T07:45:42;4.85;;;2.53;;
66856;SDS011;53766;50.280;19.160;2023-06-14T07:48:23;4.78;;;2.70;;
66856;SDS011;53766;50.280;19.160;2023-06-14T07:50:56;6.93;;;2.92;;
66856;SDS011;53766;50.280;19.160;2023-06-14T07:53:23;5.05;;;2.72;;
66856;SDS011;53766;50.280;19.160;2023-06-14T07:55:51;3.42;;;2.58;;
66856;SDS011;53766;50.280;19.160;2023-06-14T07:58:20;5.13;;;2.92;;
66856;SDS011;53766;50.280;19.160;2023-06-14T08:00:47;3.08;;;2.55;;
66856;SDS011;53766;50.280;19.160;2023-06-14T08:03:15;4.18;;;2.75;;
66856;SDS011;53766;50.280;19.160;2023-06-14T08:05:45;4.28;;;2.63;;
66856;SDS011;53766;50.280;19.160;2023-06-14T08:08:13;3.53;;;2.60;;
66856;SDS011;53766;50.280;19.160;2023-06-14T08:10:40;4.07;;;2.47;;
66856;SDS011;53766;50.280;19.160;2023-06-14T08:13:08;8.02;;;2.83;;
66856;SDS011;53766;50.280;19.160;2023-06-14T08:15:37;5.30;;;2.63;;
66856;SDS011;53766;50.280;19.160;2023-06-14T08:18:04;3.35;;;2.50;;
66856;SDS011;53766;50.280;19.160;2023-06-14T08:20:32;3.25;;;2.50;;
66856;SDS011;53766;50.280;19.160;2023-06-14T08:22:59;5.30;;;2.22;;
66856;SDS011;53766;50.280;19.160;2023-06-14T08:25:27;4.00;;;2.20;;
66856;SDS011;53766;50.280;19.160;2023-06-14T08:27:54;4.05;;;2.47;;
66856;SDS011;53766;50.280;19.160;2023-06-14T08:30:22;4.35;;;2.55;;
66856;SDS011;53766;50.280;19.160;2023-06-14T08:32:50;3.35;;;2.40;;
66856;SDS011;53766;50.280;19.160;2023-06-14T08:35:36;3.92;;;2.60;;
66856;SDS011;53766;50.280;19.160;2023-06-14T08:38:06;3.40;;;2.40;;
66856;SDS011;53766;50.280;19.160;2023-06-14T08:40:34;2.85;;;2.10;;
66856;SDS011;53766;50.280;19.160;2023-06-14T08:43:04;3.90;;;2.40;;
66856;SDS011;53766;50.280;19.160;2023-06-14T08:45:32;4.75;;;2.47;;
66856;SDS011;53766;50.280;19.160;2023-06-14T08:47:59;3.38;;;2.20;;
66856;SDS011;53766;50.280;19.160;2023-06-14T08:50:29;3.58;;;2.25;;
66856;SDS011;53766;50.280;19.160;2023-06-14T08:53:01;3.22;;;2.45;;
66856;SDS011;53766;50.280;19.160;2023-06-14T08:55:31;2.90;;;2.22;;
66856;SDS011;53766;50.280;19.160;2023-06-14T08:58:03;3.78;;;2.33;;
66856;SDS011;53766;50.280;19.160;2023-06-14T09:00:32;5.75;;;2.30;;
66856;SDS011;53766;50.280;19.160;2023-06-14T09:03:00;3.47;;;2.50;;
66856;SDS011;53766;50.280;19.160;2023-06-14T09:05:29;4.13;;;2.22;;
66856;SDS011;53766;50.280;19.160;2023-06-14T09:07:56;3.45;;;2.33;;
66856;SDS011;53766;50.280;19.160;2023-06-14T09:10:32;3.58;;;2.30;;
66856;SDS011;53766;50.280;19.160;2023-06-14T09:13:05;2.75;;;2.10;;
66856;SDS011;53766;50.280;19.160;2023-06-14T09:15:33;2.53;;;1.90;;
66856;SDS011;53766;50.280;19.160;2023-06-14T09:18:01;3.72;;;2.20;;
66856;SDS011;53766;50.280;19.160;2023-06-14T09:20:30;3.90;;;2.45;;
66856;SDS011;53766;50.280;19.160;2023-06-14T09:22:58;2.70;;;2.13;;
66856;SDS011;53766;50.280;19.160;2023-06-14T09:25:28;3.55;;;2.15;;
66856;SDS011;53766;50.280;19.160;2023-06-14T09:27:58;3.85;;;2.38;;
66856;SDS011;53766;50.280;19.160;2023-06-14T09:30:25;3.60;;;2.20;;
66856;SDS011;53766;50.280;19.160;2023-06-14T09:32:53;2.60;;;2.03;;
66856;SDS011;53766;50.280;19.160;2023-06-14T09:35:21;3.88;;;2.20;;
66856;SDS011;53766;50.280;19.160;2023-06-14T09:37:48;2.70;;;2.10;;
66856;SDS011;53766;50.280;19.160;2023-06-14T09:40:20;2.50;;;2.00;;
66856;SDS011;53766;50.280;19.160;2023-06-14T09:42:48;2.83;;;1.80;;
66856;SDS011;53766;50.280;19.160;2023-06-14T09:45:17;2.85;;;1.88;;
66856;SDS011;53766;50.280;19.160;2023-06-14T09:47:49;3.80;;;2.25;;
66856;SDS011;53766;50.280;19.160;2023-06-14T09:50:32;2.60;;;2.05;;
66856;SDS011;53766;50.280;19.160;2023-06-14T09:53:03;3.42;;;2.08;;
66856;SDS011;53766;50.280;19.160;2023-06-14T09:58:04;2.75;;;2.05;;
66856;SDS011;53766;50.280;19.160;2023-06-14T10:00:35;3.33;;;1.98;;
66856;SDS011;53766;50.280;19.160;2023-06-14T10:03:47;2.78;;;2.08;;
66856;SDS011;53766;50.280;19.160;2023-06-14T10:06:10;3.65;;;2.20;;
66856;SDS011;53766;50.280;19.160;2023-06-14T10:08:38;2.30;;;1.90;;
66856;SDS011;53766;50.280;19.160;2023-06-14T10:11:07;3.03;;;1.90;;
66856;SDS011;53766;50.280;19.160;2023-06-14T10:13:35;2.60;;;1.90;;
66856;SDS011;53766;50.280;19.160;2023-06-14T10:16:17;2.85;;;1.90;;
66856;SDS011;53766;50.280;19.160;2023-06-14T10:21:50;2.47;;;1.75;;
66856;SDS011;53766;50.280;19.160;2023-06-14T10:24:39;2.45;;;1.95;;
66856;SDS011;53766;50.280;19.160;2023-06-14T10:27:09;2.92;;;2.20;;
66856;SDS011;53766;50.280;19.160;2023-06-14T10:32:20;3.47;;;2.00;;
66856;SDS011;53766;50.280;19.160;2023-06-14T10:34:54;3.67;;;2.10;;
66856;SDS011;53766;50.280;19.160;2023-06-14T10:37:24;2.50;;;1.85;;
66856;SDS011;53766;50.280;19.160;2023-06-14T10:39:52;3.00;;;1.90;;
66856;SDS011;53766;50.280;19.160;2023-06-14T10:42:20;2.42;;;1.95;;
66856;SDS011;53766;50.280;19.160;2023-06-14T10:44:50;3.70;;;2.13;;
66856;SDS011;53766;50.280;19.160;2023-06-14T10:47:26;3.25;;;2.25;;
66856;SDS011;53766;50.280;19.160;2023-06-14T10:50:09;4.00;;;1.85;;
66856;SDS011;53766;50.280;19.160;2023-06-14T10:52:39;3.47;;;2.25;;
66856;SDS011;53766;50.280;19.160;2023-06-14T10:57:51;4.22;;;2.47;;
66856;SDS011;53766;50.280;19.160;2023-06-14T11:00:23;3.70;;;2.10;;
66856;SDS011;53766;50.280;19.160;2023-06-14T11:03:11;3.55;;;1.95;;
66856;SDS011;53766;50.280;19.160;2023-06-14T11:11:08;3.10;;;1.98;;
66856;SDS011;53766;50.280;19.160;2023-06-14T11:13:38;2.92;;;2.08;;
66856;SDS011;53766;50.280;19.160;2023-06-14T11:16:12;3.25;;;2.00;;
66856;SDS011;53766;50.280;19.160;2023-06-14T11:18:41;2.55;;;1.83;;
66856;SDS011;53766;50.280;19.160;2023-06-14T11:21:09;3.15;;;2.50;;
66856;SDS011;53766;50.280;19.160;2023-06-14T11:23:37;4.43;;;2.38;;
66856;SDS011;53766;50.280;19.160;2023-06-14T11:26:04;2.67;;;1.90;;
66856;SDS011;53766;50.280;19.160;2023-06-14T11:28:35;3.22;;;2.20;;
66856;SDS011;53766;50.280;19.160;2023-06-14T11:31:07;4.65;;;2.10;;
66856;SDS011;53766;50.280;19.160;2023-06-14T11:33:35;2.58;;;1.92;;
66856;SDS011;53766;50.280;19.160;2023-06-14T11:36:03;3.83;;;2.33;;
66856;SDS011;53766;50.280;19.160;2023-06-14T11:38:35;3.65;;;1.98;;
66856;SDS011;53766;50.280;19.160;2023-06-14T11:41:03;2.63;;;2.03;;
66856;SDS011;53766;50.280;19.160;2023-06-14T11:43:31;3.95;;;2.40;;
66856;SDS011;53766;50.280;19.160;2023-06-14T11:46:00;2.88;;;2.10;;
66856;SDS011;53766;50.280;19.160;2023-06-14T11:48:41;3.80;;;2.20;;
66856;SDS011;53766;50.280;19.160;2023-06-14T11:51:09;5.53;;;2.40;;
66856;SDS011;53766;50.280;19.160;2023-06-14T11:53:38;3.00;;;2.28;;
66856;SDS011;53766;50.280;19.160;2023-06-14T11:56:06;2.80;;;2.17;;
66856;SDS011;53766;50.280;19.160;2023-06-14T11:58:34;4.68;;;2.28;;
66856;SDS011;53766;50.280;19.160;2023-06-14T12:01:03;2.65;;;2.15;;
66856;SDS011;53766;50.280;19.160;2023-06-14T12:03:31;3.97;;;2.40;;
66856;SDS011;53766;50.280;19.160;2023-06-14T12:06:02;3.95;;;2.25;;
66856;SDS011;53766;50.280;19.160;2023-06-14T12:08:37;5.57;;;2.38;;
66856;SDS011;53766;50.280;19.160;2023-06-14T12:11:12;3.58;;;2.22;;
66856;SDS011;53766;50.280;19.160;2023-06-14T12:13:41;3.70;;;2.30;;
66856;SDS011;53766;50.280;19.160;2023-06-14T12:16:09;4.53;;;2.45;;
66856;SDS011;53766;50.280;19.160;2023-06-14T12:18:39;4.32;;;2.15;;
66856;SDS011;53766;50.280;19.160;2023-06-14T12:21:08;3.72;;;2.30;;
66856;SDS011;53766;50.280;19.160;2023-06-14T12:23:43;2.75;;;2.17;;
66856;SDS011;53766;50.280;19.160;2023-06-14T12:26:15;3.45;;;2.40;;
66856;SDS011;53766;50.280;19.160;2023-06-14T12:28:44;3.85;;;2.15;;
66856;SDS011;53766;50.280;19.160;2023-06-14T12:31:13;3.45;;;2.40;;
66856;SDS011;53766;50.280;19.160;2023-06-14T12:33:42;3.03;;;2.10;;
66856;SDS011;53766;50.280;19.160;2023-06-14T12:36:10;2.70;;;1.98;;
66856;SDS011;53766;50.280;19.160;2023-06-14T12:38:38;3.55;;;2.38;;
66856;SDS011;53766;50.280;19.160;2023-06-14T12:41:05;3.17;;;2.10;;
66856;SDS011;53766;50.280;19.160;2023-06-14T12:43:33;3.08;;;2.20;;
66856;SDS011;53766;50.280;19.160;2023-06-14T12:46:02;4.00;;;2.40;;
66856;SDS011;53766;50.280;19.160;2023-06-14T12:48:29;3.47;;;2.40;;
66856;SDS011;53766;50.280;19.160;2023-06-14T12:50:58;3.55;;;2.40;;
66856;SDS011;53766;50.280;19.160;2023-06-14T12:53:26;4.55;;;2.33;;
66856;SDS011;53766;50.280;19.160;2023-06-14T12:55:53;3.65;;;2.63;;
66856;SDS011;53766;50.280;19.160;2023-06-14T12:58:21;3.85;;;2.40;;
66856;SDS011;53766;50.280;19.160;2023-06-14T13:00:48;4.70;;;2.60;;
66856;SDS011;53766;50.280;19.160;2023-06-14T13:03:16;4.30;;;2.67;;
66856;SDS011;53766;50.280;19.160;2023-06-14T13:05:43;5.65;;;2.90;;
66856;SDS011;53766;50.280;19.160;2023-06-14T13:08:11;5.07;;;3.00;;
66856;SDS011;53766;50.280;19.160;2023-06-14T13:10:39;4.60;;;2.67;;
66856;SDS011;53766;50.280;19.160;2023-06-14T13:13:06;4.68;;;2.90;;
66856;SDS011;53766;50.280;19.160;2023-06-14T13:15:34;5.18;;;2.95;;
66856;SDS011;53766;50.280;19.160;2023-06-14T13:18:02;5.88;;;3.10;;
66856;SDS011;53766;50.280;19.160;2023-06-14T13:20:30;6.53;;;3.42;;
66856;SDS011;53766;50.280;19.160;2023-06-14T13:22:58;5.22;;;3.28;;
66856;SDS011;53766;50.280;19.160;2023-06-14T13:25:26;8.35;;;3.70;;
66856;SDS011;53766;50.280;19.160;2023-06-14T13:27:53;6.47;;;3.35;;
66856;SDS011;53766;50.280;19.160;2023-06-14T13:30:21;6.15;;;3.40;;
66856;SDS011;53766;50.280;19.160;2023-06-14T13:32:48;6.15;;;3.42;;
66856;SDS011;53766;50.280;19.160;2023-06-14T13:35:18;6.78;;;3.53;;
66856;SDS011;53766;50.280;19.160;2023-06-14T13:37:46;7.50;;;3.95;;
66856;SDS011;53766;50.280;19.160;2023-06-14T13:40:14;7.53;;;3.53;;
66856;SDS011;53766;50.280;19.160;2023-06-14T13:42:42;5.25;;;3.53;;
66856;SDS011;53766;50.280;19.160;2023-06-14T13:45:10;7.13;;;3.50;;
66856;SDS011;53766;50.280;19.160;2023-06-14T13:47:39;5.50;;;3.58;;
66856;SDS011;53766;50.280;19.160;2023-06-14T13:50:06;6.68;;;3.20;;
66856;SDS011;53766;50.280;19.160;2023-06-14T13:52:35;5.60;;;3.53;;
66856;SDS011;53766;50.280;19.160;2023-06-14T13:55:02;5.97;;;3.33;;
66856;SDS011;53766;50.280;19.160;2023-06-14T13:57:30;6.07;;;3.58;;
66856;SDS011;53766;50.280;19.160;2023-06-14T13:59:57;6.72;;;3.67;;
66856;SDS011;53766;50.280;19.160;2023-06-14T14:02:28;5.93;;;3.55;;
66856;SDS011;53766;50.280;19.160;2023-06-14T14:04:56;5.18;;;3.53;;
66856;SDS011;53766;50.280;19.160;2023-06-14T14:07:24;6.15;;;3.70;;
66856;SDS011;53766;50.280;19.160;2023-06-14T14:09:52;9.43;;;4.10;;
66856;SDS011;53766;50.280;19.160;2023-06-14T14:12:20;5.35;;;3.60;;
66856;SDS011;53766;50.280;19.160;2023-06-14T14:14:47;7.13;;;3.25;;
66856;SDS011;53766;50.280;19.160;2023-06-14T14:17:15;5.97;;;3.53;;
66856;SDS011;53766;50.280;19.160;2023-06-14T14:19:42;8.70;;;3.53;;
66856;SDS011;53766;50.280;19.160;2023-06-14T14:22:11;8.27;;;3.60;;
66856;SDS011;53766;50.280;19.160;2023-06-14T14:24:39;6.15;;;3.15;;
66856;SDS011;53766;50.280;19.160;2023-06-14T14:27:06;6.05;;;3.38;;
66856;SDS011;53766;50.280;19.160;2023-06-14T14:29:34;6.63;;;3.33;;
66856;SDS011;53766;50.280;19.160;2023-06-14T14:32:03;7.43;;;3.33;;
66856;SDS011;53766;50.280;19.160;2023-06-14T14:34:31;5.07;;;3.20;;
66856;SDS011;53766;50.280;19.160;2023-06-14T14:36:59;5.40;;;3.20;;
66856;SDS011;53766;50.280;19.160;2023-06-14T14:39:26;7.18;;;3.70;;
66856;SDS011;53766;50.280;19.160;2023-06-14T14:41:54;6.78;;;3.20;;
66856;SDS011;53766;50.280;19.160;2023-06-14T14:44:22;5.22;;;3.15;;
66856;SDS011;53766;50.280;19.160;2023-06-14T14:46:49;6.63;;;3.30;;
66856;SDS011;53766;50.280;19.160;2023-06-14T14:49:17;8.57;;;3.42;;
66856;SDS011;53766;50.280;19.160;2023-06-14T14:51:44;6.47;;;3.25;;
66856;SDS011;53766;50.280;19.160;2023-06-14T14:54:12;7.53;;;3.22;;
66856;SDS011;53766;50.280;19.160;2023-06-14T14:56:39;5.50;;;3.60;;
66856;SDS011;53766;50.280;19.160;2023-06-14T14:59:07;5.50;;;3.30;;
66856;SDS011;53766;50.280;19.160;2023-06-14T15:01:35;4.65;;;3.25;;
66856;SDS011;53766;50.280;19.160;2023-06-14T15:04:04;4.43;;;3.28;;